Huvudsida
METAR-TAF:

METAR-TAF

Flygplatser :

Oban Airport

Oban, Skottland

latitud: 56-27-49N, longitud: 5-24-00W, höjd: 7 m

Aktuellt väderrapport

Denna rapport gjordes för 12 timmar och 45 minuter sedan, klockan 07:20 UTC
Vind 6 kt från ost
Temperatur 17°C
Fuktighet 72%
Tryck 1027 hPa
Sikt 10 km eller mer
Inga moln under 1 500 m eller inga cumulonimbus

METAR: EGEO 290720Z 09006KT CAVOK 17/12 Q1027

Tid: 21:05 (20:05 UTC)


TAF: saknas

Aktuella väderrapporter och prognoser från 4000 flygplatser (METAR- och TAF-rapporter).

De tillgängliga stationerna syns som gula och röda prickar på kartan.

För musen över prickarna för att se namnen på stationerna.

Klicka sedan för att få väderrapporter och prognoser.

För att ändra kartan: Klicka på de gröna knapparna med ett svart kors på för att zooma in; den gröna knappen med ett streck på för att zooma ut; eller på de gröna pilarna för angränsande kartor.


METAR-TAF: